Time;durP1;ratioP1;P1;durP2;ratioP2;P2;SDS_P1;SDS_P2;PMS_P1;PMS_P2;Temp;Humidity;BMP_temperature;BMP_pressure;BME280_temperature;BME280_humidity;BME280_pressure;Samples;Min_cycle;Max_cycle;Signal;HPM_P1;HPM_P2
2024/03/26 00:01:06;;;;;;;5.78;3.38;;;11.70;75.30;;;;;;4976225;28;20087;-36
2024/03/26 00:03:32;;;;;;;5.13;3.22;;;11.70;75.40;;;;;;4969855;28;20031;-37
2024/03/26 00:05:57;;;;;;;4.72;3.50;;;11.70;75.40;;;;;;4981165;28;20037;-35
2024/03/26 00:08:23;;;;;;;5.03;3.60;;;11.60;75.30;;;;;;4974549;28;20039;-33
2024/03/26 00:10:51;;;;;;;5.90;3.80;;;11.60;75.30;;;;;;4973691;28;20049;-36
2024/03/26 00:13:17;;;;;;;6.55;3.78;;;11.60;75.40;;;;;;4980884;28;20035;-36
2024/03/26 00:15:42;;;;;;;5.35;3.10;;;11.60;75.40;;;;;;4978557;28;20027;-36
2024/03/26 00:18:08;;;;;;;4.28;3.40;;;11.50;75.40;;;;;;4973819;28;20030;-42
2024/03/26 00:20:34;;;;;;;5.22;3.80;;;11.50;75.40;;;;;;4974017;28;20444;-37
2024/03/26 00:22:59;;;;;;;5.03;3.25;;;11.50;75.40;;;;;;4972831;28;20053;-34
2024/03/26 00:25:25;;;;;;;5.00;3.42;;;11.50;75.50;;;;;;4974507;28;20091;-37
2024/03/26 00:27:51;;;;;;;4.53;3.25;;;11.50;75.50;;;;;;4964463;28;20097;-36
2024/03/26 00:30:16;;;;;;;4.43;3.58;;;11.40;75.50;;;;;;4968835;28;20069;-35
2024/03/26 00:32:42;;;;;;;5.53;3.65;;;11.40;75.60;;;;;;4968426;28;20023;-34
2024/03/26 00:35:08;;;;;;;6.03;3.72;;;11.40;75.60;;;;;;4979518;28;20026;-35
2024/03/26 00:37:33;;;;;;;5.00;3.40;;;11.40;75.60;;;;;;4975336;28;20113;-33
2024/03/26 00:39:59;;;;;;;5.28;3.63;;;11.30;75.60;;;;;;4959743;28;20027;-36
2024/03/26 00:42:25;;;;;;;5.80;3.60;;;11.30;75.60;;;;;;4976274;28;20035;-36
2024/03/26 00:44:50;;;;;;;5.25;3.60;;;11.30;75.60;;;;;;4979572;28;20027;-31
2024/03/26 00:47:16;;;;;;;6.28;3.22;;;11.30;75.60;;;;;;4975024;28;20522;-33
2024/03/26 00:49:42;;;;;;;5.40;3.70;;;11.20;75.60;;;;;;4972877;28;20329;-35
2024/03/26 00:52:07;;;;;;;4.63;3.50;;;11.20;75.60;;;;;;4976265;28;20019;-35
2024/03/26 00:54:33;;;;;;;4.82;3.33;;;11.20;75.70;;;;;;4974055;28;20035;-38
2024/03/26 00:56:59;;;;;;;6.10;3.30;;;11.20;75.80;;;;;;4973318;28;20029;-33
2024/03/26 00:59:25;;;;;;;5.68;3.53;;;11.20;75.70;;;;;;4966951;28;20046;-36
2024/03/26 01:01:50;;;;;;;5.70;3.60;;;11.20;75.80;;;;;;4978125;28;20090;-38
2024/03/26 01:04:17;;;;;;;5.25;3.55;;;11.10;75.80;;;;;;4986072;28;20022;-37
2024/03/26 01:06:42;;;;;;;4.43;3.60;;;11.20;75.80;;;;;;4985463;28;20053;-33
2024/03/26 01:09:08;;;;;;;4.22;3.30;;;11.10;75.80;;;;;;4978067;28;20023;-36
2024/03/26 01:11:34;;;;;;;5.05;3.35;;;11.10;75.80;;;;;;4972511;28;20050;-34
2024/03/26 01:13:59;;;;;;;5.10;3.28;;;11.10;75.90;;;;;;4976359;28;20029;-37
2024/03/26 01:16:25;;;;;;;6.20;3.72;;;11.10;75.90;;;;;;4979435;28;20517;-34
2024/03/26 01:18:51;;;;;;;6.10;3.35;;;11.00;75.80;;;;;;4972370;28;20046;-36
2024/03/26 01:21:17;;;;;;;6.05;3.60;;;11.00;75.80;;;;;;4977719;28;20034;-38
2024/03/26 01:23:42;;;;;;;5.35;3.50;;;11.00;75.80;;;;;;4987901;28;20038;-37
2024/03/26 01:26:08;;;;;;;4.93;3.45;;;11.00;75.90;;;;;;4974201;28;20396;-35
2024/03/26 01:28:34;;;;;;;4.10;3.33;;;11.00;75.90;;;;;;4979115;28;20069;-37
2024/03/26 01:30:59;;;;;;;5.47;3.10;;;10.90;75.80;;;;;;4952562;28;20031;-34
2024/03/26 01:33:25;;;;;;;5.50;3.40;;;10.90;75.90;;;;;;4973652;28;20026;-36
2024/03/26 01:35:54;;;;;;;5.30;3.60;;;10.90;75.90;;;;;;4968747;28;20043;-37
2024/03/26 01:38:20;;;;;;;4.90;3.50;;;10.90;75.90;;;;;;4975732;28;20039;-38
2024/03/26 01:40:46;;;;;;;6.72;3.72;;;10.90;75.90;;;;;;4976353;28;20019;-38
2024/03/26 01:43:12;;;;;;;5.50;3.55;;;10.90;75.90;;;;;;4970754;28;20050;-35
2024/03/26 01:45:38;;;;;;;5.57;3.20;;;10.80;75.90;;;;;;4975943;28;20018;-34
2024/03/26 01:48:05;;;;;;;4.75;3.35;;;10.80;75.90;;;;;;4974137;28;20034;-34
2024/03/26 01:50:31;;;;;;;5.45;3.20;;;10.80;75.90;;;;;;4974835;28;20041;-34
2024/03/26 01:52:57;;;;;;;5.28;3.53;;;10.80;76.00;;;;;;4966951;28;20594;-33
2024/03/26 01:55:24;;;;;;;5.47;3.88;;;10.80;76.00;;;;;;4973065;28;20043;-36
2024/03/26 01:57:50;;;;;;;5.93;3.67;;;10.70;75.90;;;;;;4957271;28;20468;-36
2024/03/26 02:00:19;;;;;;;4.30;3.20;;;10.70;75.90;;;;;;4975495;28;20026;-37
2024/03/26 02:02:47;;;;;;;6.57;3.33;;;10.70;76.00;;;;;;4953708;28;20422;-36
2024/03/26 02:05:13;;;;;;;5.78;3.20;;;10.70;76.00;;;;;;4973091;28;20087;-33
2024/03/26 02:07:39;;;;;;;8.02;3.88;;;10.70;76.00;;;;;;4976789;28;20077;-36
2024/03/26 02:10:06;;;;;;;6.25;3.67;;;10.60;76.00;;;;;;4965575;28;20025;-36
2024/03/26 02:12:32;;;;;;;5.28;3.42;;;10.60;76.10;;;;;;4972504;28;20027;-36
2024/03/26 02:14:58;;;;;;;5.32;3.42;;;10.60;76.00;;;;;;4974959;28;20509;-33
2024/03/26 02:17:23;;;;;;;7.93;3.60;;;10.60;76.10;;;;;;4973110;28;20109;-36
2024/03/26 02:19:49;;;;;;;5.53;3.85;;;10.60;76.10;;;;;;4964696;28;20075;-36
2024/03/26 02:22:15;;;;;;;5.28;3.72;;;10.50;76.00;;;;;;4974510;28;20062;-35
2024/03/26 02:24:40;;;;;;;4.72;3.38;;;10.60;76.10;;;;;;4978180;28;20042;-38
2024/03/26 02:27:06;;;;;;;6.03;3.53;;;10.50;76.00;;;;;;4984048;28;20033;-38
2024/03/26 02:29:32;;;;;;;5.88;3.65;;;10.50;76.00;;;;;;4973316;28;20339;-36
2024/03/26 02:31:57;;;;;;;5.32;3.30;;;10.50;76.10;;;;;;4976804;28;20440;-36
2024/03/26 02:34:23;;;;;;;5.22;3.50;;;10.50;76.10;;;;;;4974956;28;20070;-38
2024/03/26 02:36:49;;;;;;;5.50;3.65;;;10.50;76.10;;;;;;4974623;28;20033;-35
2024/03/26 02:39:16;;;;;;;6.03;3.33;;;10.50;76.10;;;;;;4975346;28;20023;-38
2024/03/26 02:41:42;;;;;;;5.05;3.50;;;10.50;76.10;;;;;;4975053;28;20466;-34
2024/03/26 02:44:07;;;;;;;6.03;3.22;;;10.40;76.10;;;;;;4969906;28;20027;-36
2024/03/26 02:46:33;;;;;;;4.45;3.20;;;10.40;76.10;;;;;;4975910;28;21148;-31
2024/03/26 02:48:59;;;;;;;5.78;3.40;;;10.40;76.30;;;;;;4975817;28;20101;-33
2024/03/26 02:51:25;;;;;;;4.40;3.28;;;10.40;76.10;;;;;;4972770;28;20039;-33
2024/03/26 02:53:51;;;;;;;6.22;3.47;;;10.40;76.10;;;;;;4976214;28;20058;-31
2024/03/26 02:56:16;;;;;;;5.18;3.42;;;10.30;76.00;;;;;;4939385;28;1109036;-34
2024/03/26 02:58:42;;;;;;;4.53;3.35;;;10.30;76.10;;;;;;4979408;28;20597;-36
2024/03/26 03:01:10;;;;;;;5.35;3.80;;;10.30;76.10;;;;;;4968080;28;20042;-36
2024/03/26 03:03:38;;;;;;;6.22;3.40;;;10.30;76.10;;;;;;4977964;28;20379;-38
2024/03/26 03:06:10;;;;;;;5.07;3.53;;;10.30;76.10;;;;;;4979993;28;20015;-34
2024/03/26 03:08:37;;;;;;;4.88;3.20;;;10.30;76.10;;;;;;4966051;28;20477;-36
2024/03/26 03:11:03;;;;;;;4.00;3.05;;;10.30;76.10;;;;;;4963489;28;20098;-38
2024/03/26 03:13:29;;;;;;;4.35;2.95;;;10.30;76.10;;;;;;4964759;28;20070;-35
2024/03/26 03:15:55;;;;;;;4.40;3.22;;;10.30;76.10;;;;;;4970912;28;20027;-36
2024/03/26 03:18:20;;;;;;;5.30;3.47;;;10.30;76.10;;;;;;4981012;28;20034;-35
2024/03/26 03:20:46;;;;;;;5.00;3.20;;;10.20;76.00;;;;;;4971058;28;20030;-37
2024/03/26 03:23:13;;;;;;;5.05;3.22;;;10.20;76.10;;;;;;4964548;28;20031;-35
2024/03/26 03:25:38;;;;;;;5.57;3.35;;;10.20;76.70;;;;;;4974466;28;20055;-38
2024/03/26 03:28:05;;;;;;;5.25;3.30;;;10.20;76.10;;;;;;4977329;28;20023;-34
2024/03/26 03:30:31;;;;;;;6.10;3.55;;;10.20;76.10;;;;;;4977018;28;20041;-38
2024/03/26 03:32:57;;;;;;;4.15;3.38;;;10.20;76.10;;;;;;4984549;28;20038;-35
2024/03/26 03:35:22;;;;;;;4.93;3.33;;;10.10;76.10;;;;;;4976616;28;20027;-33
2024/03/26 03:37:48;;;;;;;4.90;3.20;;;10.10;76.10;;;;;;4968425;28;20073;-36
2024/03/26 03:40:14;;;;;;;4.32;3.00;;;10.10;76.10;;;;;;4977128;28;20126;-37
2024/03/26 03:42:40;;;;;;;4.95;3.20;;;10.10;76.10;;;;;;4978837;28;20041;-38
2024/03/26 03:45:06;;;;;;;5.22;3.25;;;10.10;76.20;;;;;;4974031;28;20067;-35
2024/03/26 03:47:32;;;;;;;5.13;3.35;;;10.10;76.20;;;;;;4975597;28;20451;-39
2024/03/26 03:49:57;;;;;;;5.15;3.33;;;10.10;76.30;;;;;;4980783;28;20026;-39
2024/03/26 03:52:23;;;;;;;5.57;3.20;;;10.00;76.20;;;;;;4974590;28;20034;-37
2024/03/26 03:54:49;;;;;;;4.55;3.17;;;10.00;76.20;;;;;;4973523;28;20042;-38
2024/03/26 03:57:14;;;;;;;5.32;3.45;;;10.00;76.20;;;;;;4980635;28;20034;-34
2024/03/26 03:59:40;;;;;;;4.57;3.20;;;10.00;76.20;;;;;;4972161;28;20031;-37
2024/03/26 04:02:06;;;;;;;4.63;3.15;;;9.90;76.10;;;;;;4981788;28;20042;-36
2024/03/26 04:04:31;;;;;;;4.80;3.63;;;10.00;76.20;;;;;;4979814;28;20027;-35
2024/03/26 04:06:57;;;;;;;5.82;3.25;;;9.90;76.20;;;;;;4982251;28;20015;-38
2024/03/26 04:09:23;;;;;;;5.43;3.50;;;9.90;76.20;;;;;;4972949;28;20189;-35
2024/03/26 04:11:50;;;;;;;4.93;3.00;;;9.90;76.30;;;;;;4978169;28;20033;-36
2024/03/26 04:14:15;;;;;;;4.93;3.47;;;9.90;76.20;;;;;;4979852;28;20030;-35
2024/03/26 04:16:45;;;;;;;5.25;3.55;;;9.90;76.20;;;;;;4979232;28;20024;-35
2024/03/26 04:19:12;;;;;;;5.25;3.33;;;9.90;76.30;;;;;;4971533;28;20114;-38
2024/03/26 04:21:38;;;;;;;4.68;3.17;;;9.90;76.30;;;;;;4978294;28;20046;-33
2024/03/26 04:24:04;;;;;;;5.57;3.30;;;9.90;76.20;;;;;;4971330;28;20023;-34
2024/03/26 04:26:30;;;;;;;4.60;3.30;;;9.80;76.30;;;;;;4980465;28;20019;-36
2024/03/26 04:28:56;;;;;;;5.28;3.50;;;9.80;76.20;;;;;;4978987;28;20034;-34
2024/03/26 04:31:21;;;;;;;4.25;3.10;;;9.80;76.20;;;;;;4978076;28;20533;-35
2024/03/26 04:33:47;;;;;;;4.22;2.92;;;9.80;76.30;;;;;;4978202;28;20043;-36
2024/03/26 04:36:13;;;;;;;4.47;3.05;;;9.80;76.20;;;;;;4968652;28;20094;-37
2024/03/26 04:38:38;;;;;;;4.97;3.20;;;9.80;76.30;;;;;;4982570;28;20027;-36
2024/03/26 04:41:04;;;;;;;5.30;3.40;;;9.80;76.30;;;;;;4975781;28;20032;-36
2024/03/26 04:43:30;;;;;;;5.68;3.17;;;9.80;76.30;;;;;;4965235;28;20062;-34
2024/03/26 04:45:55;;;;;;;4.30;3.00;;;9.70;76.30;;;;;;4969444;28;20054;-37
2024/03/26 04:48:21;;;;;;;4.70;3.20;;;9.70;76.20;;;;;;4967502;28;20022;-33
2024/03/26 04:50:47;;;;;;;5.28;3.30;;;9.70;76.30;;;;;;4979154;28;20042;-36
2024/03/26 04:53:13;;;;;;;4.20;2.90;;;9.70;76.20;;;;;;4974835;28;20023;-36
2024/03/26 04:55:38;;;;;;;4.72;3.15;;;9.70;76.90;;;;;;4973386;28;20098;-38
2024/03/26 04:58:04;;;;;;;4.35;3.10;;;9.70;76.30;;;;;;4982715;28;20490;-36
2024/03/26 05:00:30;;;;;;;4.65;3.10;;;9.70;76.30;;;;;;4978102;28;20027;-35
2024/03/26 05:02:56;;;;;;;4.55;3.20;;;9.60;76.20;;;;;;4979358;28;20099;-34
2024/03/26 05:05:22;;;;;;;4.95;3.28;;;9.60;76.20;;;;;;4979084;28;20034;-37
2024/03/26 05:07:48;;;;;;;5.22;3.30;;;9.60;76.20;;;;;;4978703;28;20031;-35
2024/03/26 05:10:14;;;;;;;4.63;2.97;;;9.60;76.20;;;;;;4980334;28;20022;-35
2024/03/26 05:12:39;;;;;;;4.90;3.03;;;9.60;76.20;;;;;;4955252;28;20027;-37
2024/03/26 05:15:06;;;;;;;4.70;3.13;;;9.50;76.20;;;;;;4971072;28;20030;-37
2024/03/26 05:17:31;;;;;;;5.05;3.42;;;9.50;76.20;;;;;;4980427;28;20023;-37
2024/03/26 05:19:58;;;;;;;5.63;2.92;;;9.50;76.20;;;;;;4977999;28;20051;-35
2024/03/26 05:22:24;;;;;;;4.10;3.08;;;9.50;76.30;;;;;;4949711;28;20030;-35
2024/03/26 05:24:52;;;;;;;6.88;3.42;;;9.50;76.30;;;;;;4958863;28;20124;-33
2024/03/26 05:27:17;;;;;;;4.65;2.95;;;9.50;76.30;;;;;;4975677;28;20034;-37
2024/03/26 05:29:43;;;;;;;6.35;3.10;;;9.50;76.30;;;;;;4976289;28;20019;-32
2024/03/26 05:32:09;;;;;;;5.90;3.28;;;9.40;76.30;;;;;;4972028;28;20526;-37
2024/03/26 05:34:34;;;;;;;6.50;3.25;;;9.40;76.30;;;;;;4972985;28;20023;-35
2024/03/26 05:37:00;;;;;;;5.28;3.50;;;9.40;76.30;;;;;;4970684;28;20027;-34
2024/03/26 05:39:26;;;;;;;4.43;3.00;;;9.40;76.30;;;;;;4974864;28;20038;-34
2024/03/26 05:41:51;;;;;;;4.38;2.90;;;9.30;76.30;;;;;;4978793;28;20612;-35
2024/03/26 05:44:17;;;;;;;5.40;3.05;;;9.40;76.40;;;;;;4975696;28;20098;-36
2024/03/26 05:46:43;;;;;;;4.30;3.10;;;9.30;76.40;;;;;;4975727;28;20037;-36
2024/03/26 05:49:09;;;;;;;4.72;3.28;;;9.30;76.40;;;;;;4974935;28;20038;-37
2024/03/26 05:51:35;;;;;;;4.25;2.92;;;9.30;76.40;;;;;;4978438;28;20046;-35
2024/03/26 05:54:01;;;;;;;4.68;3.00;;;9.30;76.40;;;;;;4977939;28;20023;-34
2024/03/26 05:56:27;;;;;;;4.22;2.88;;;9.30;76.40;;;;;;4971602;28;20026;-34
2024/03/26 05:58:56;;;;;;;5.05;2.75;;;9.30;76.40;;;;;;4977376;28;20483;-37
2024/03/26 06:01:21;;;;;;;5.05;3.00;;;9.20;76.40;;;;;;4956898;28;20083;-36
2024/03/26 06:03:47;;;;;;;3.72;3.03;;;9.20;76.40;;;;;;4977758;28;20023;-38
2024/03/26 06:06:13;;;;;;;4.53;2.90;;;9.20;76.40;;;;;;4978025;28;20041;-35
2024/03/26 06:08:39;;;;;;;5.10;3.10;;;9.20;76.40;;;;;;4978676;28;20027;-36
2024/03/26 06:11:05;;;;;;;5.05;3.13;;;9.20;76.40;;;;;;4971271;28;20035;-31
2024/03/26 06:13:31;;;;;;;4.60;3.08;;;9.20;76.50;;;;;;4945747;28;20035;-37
2024/03/26 06:16:08;;;;;;;5.72;3.40;;;9.20;76.50;;;;;;4949428;28;20031;-35
2024/03/26 06:18:35;;;;;;;4.32;3.05;;;9.20;76.50;;;;;;4976754;28;20094;-32
2024/03/26 06:21:01;;;;;;;4.80;3.22;;;9.10;76.40;;;;;;4976400;28;20030;-36
2024/03/26 06:23:26;;;;;;;3.63;2.72;;;9.10;76.40;;;;;;4978154;28;20114;-35
2024/03/26 06:25:52;;;;;;;3.70;2.92;;;9.10;76.50;;;;;;4976613;28;20054;-38
2024/03/26 06:28:19;;;;;;;4.53;3.30;;;9.10;76.60;;;;;;4977555;28;20178;-38
2024/03/26 06:30:46;;;;;;;5.30;3.00;;;9.10;76.60;;;;;;4965866;28;20027;-36
2024/03/26 06:33:12;;;;;;;5.82;3.08;;;9.10;76.60;;;;;;4978978;28;20026;-38
2024/03/26 06:35:38;;;;;;;3.60;2.92;;;9.00;76.60;;;;;;4975875;28;20038;-37
2024/03/26 06:38:05;;;;;;;5.35;3.10;;;9.10;76.60;;;;;;4979636;28;20492;-38
2024/03/26 06:40:31;;;;;;;4.40;3.35;;;9.00;76.50;;;;;;4962074;28;20050;-37
2024/03/26 06:42:58;;;;;;;5.57;3.17;;;9.10;76.60;;;;;;4959599;28;20037;-34
2024/03/26 06:45:23;;;;;;;4.13;2.80;;;9.00;76.60;;;;;;4980116;28;20031;-32
2024/03/26 06:47:49;;;;;;;5.18;3.25;;;9.10;76.60;;;;;;4976506;28;20066;-36
2024/03/26 06:50:15;;;;;;;4.68;2.92;;;9.00;76.60;;;;;;4979515;28;20073;-38
2024/03/26 06:52:44;;;;;;;5.68;3.40;;;9.00;76.60;;;;;;4978225;28;20030;-36
2024/03/26 06:55:10;;;;;;;5.70;3.10;;;9.00;76.60;;;;;;4982831;28;20109;-37
2024/03/26 06:57:35;;;;;;;4.07;3.05;;;9.00;76.60;;;;;;4979320;28;20059;-35
2024/03/26 07:00:02;;;;;;;4.60;3.28;;;9.00;76.60;;;;;;4976441;28;20031;-36
2024/03/26 07:02:28;;;;;;;4.72;3.15;;;9.00;76.70;;;;;;4976929;28;20035;-35
2024/03/26 07:04:54;;;;;;;4.32;3.17;;;9.00;76.70;;;;;;4975323;28;20049;-36
2024/03/26 07:07:19;;;;;;;4.35;3.03;;;9.00;76.70;;;;;;4981905;28;20049;-33
2024/03/26 07:09:45;;;;;;;4.93;2.95;;;9.00;76.70;;;;;;4969646;28;20094;-34
2024/03/26 07:12:11;;;;;;;3.75;3.00;;;9.00;76.70;;;;;;4966985;28;20167;-35
2024/03/26 07:14:37;;;;;;;4.45;3.20;;;9.00;76.80;;;;;;4976295;28;20031;-35
2024/03/26 07:17:02;;;;;;;4.88;3.28;;;8.90;76.80;;;;;;4958371;28;20039;-32
2024/03/26 07:19:28;;;;;;;4.45;2.97;;;9.00;76.80;;;;;;4978240;28;20082;-34
2024/03/26 07:21:54;;;;;;;4.63;3.08;;;9.00;76.80;;;;;;4974040;28;20446;-37
2024/03/26 07:24:19;;;;;;;5.38;3.10;;;9.00;76.80;;;;;;4970795;28;20073;-33
2024/03/26 07:26:45;;;;;;;5.80;3.55;;;9.00;76.80;;;;;;4991319;28;20023;-38
2024/03/26 07:29:12;;;;;;;5.53;3.22;;;9.00;76.80;;;;;;4985894;28;20062;-37
2024/03/26 07:31:37;;;;;;;5.10;3.05;;;9.00;76.80;;;;;;4981899;28;20059;-37
2024/03/26 07:34:03;;;;;;;4.25;3.03;;;9.00;76.80;;;;;;4971838;28;20047;-36
2024/03/26 07:36:29;;;;;;;4.40;3.25;;;9.00;76.90;;;;;;4974682;28;20028;-37
2024/03/26 07:38:54;;;;;;;5.53;3.08;;;9.00;76.90;;;;;;4986381;28;20042;-36
2024/03/26 07:41:21;;;;;;;3.85;2.92;;;9.00;76.90;;;;;;4974480;28;20138;-37
2024/03/26 07:43:47;;;;;;;4.18;3.00;;;9.00;76.90;;;;;;4982016;28;20225;-34
2024/03/26 07:46:12;;;;;;;4.40;2.85;;;9.00;76.80;;;;;;4982112;28;20058;-35
2024/03/26 07:48:38;;;;;;;4.55;3.33;;;9.00;76.80;;;;;;4981288;28;20087;-33
2024/03/26 07:51:04;;;;;;;5.80;3.50;;;9.10;76.90;;;;;;4980583;28;20041;-38
2024/03/26 07:53:30;;;;;;;4.68;3.28;;;9.00;76.90;;;;;;4975839;28;20098;-35
2024/03/26 07:55:56;;;;;;;4.35;3.30;;;9.10;76.90;;;;;;4977514;28;20737;-37
2024/03/26 07:58:22;;;;;;;4.38;3.13;;;9.10;76.90;;;;;;4972017;28;20034;-33
2024/03/26 08:00:48;;;;;;;4.88;3.40;;;9.20;77.00;;;;;;4962686;28;20034;-37
2024/03/26 08:03:13;;;;;;;5.15;3.25;;;9.20;76.90;;;;;;4982514;28;20031;-38
2024/03/26 08:05:40;;;;;;;4.68;3.13;;;9.20;76.80;;;;;;4978593;28;20043;-34
2024/03/26 08:08:06;;;;;;;4.60;3.00;;;9.20;76.80;;;;;;4971058;28;20027;-38
2024/03/26 08:10:34;;;;;;;5.75;3.10;;;9.20;76.80;;;;;;4980015;28;20041;-36
2024/03/26 08:13:00;;;;;;;4.90;3.25;;;9.30;76.90;;;;;;4962740;28;20023;-37
2024/03/26 08:15:26;;;;;;;4.47;3.17;;;9.20;76.90;;;;;;4969045;28;20042;-39
2024/03/26 08:17:51;;;;;;;4.65;3.10;;;9.30;76.90;;;;;;4979926;28;20421;-35
2024/03/26 08:20:17;;;;;;;4.57;3.10;;;9.30;76.90;;;;;;4982831;28;20046;-38
2024/03/26 08:22:43;;;;;;;4.95;3.58;;;9.30;76.90;;;;;;4966632;28;20082;-38
2024/03/26 08:25:09;;;;;;;5.63;3.97;;;9.30;76.90;;;;;;4971241;28;20093;-34
2024/03/26 08:27:35;;;;;;;4.63;3.55;;;9.30;76.90;;;;;;4982459;28;20077;-35
2024/03/26 08:30:01;;;;;;;4.45;3.20;;;9.40;76.90;;;;;;4975221;28;20052;-34
2024/03/26 08:32:27;;;;;;;6.85;3.47;;;9.40;76.90;;;;;;4969228;28;20031;-34
2024/03/26 08:34:53;;;;;;;5.43;3.47;;;9.40;76.90;;;;;;4964238;28;20022;-34
2024/03/26 08:37:18;;;;;;;6.13;3.55;;;9.40;76.90;;;;;;4957772;28;20105;-39
2024/03/26 08:39:44;;;;;;;5.32;3.28;;;9.50;77.00;;;;;;4981607;28;20054;-35
2024/03/26 08:42:11;;;;;;;5.32;3.40;;;9.50;77.60;;;;;;4978263;28;20042;-34
2024/03/26 08:44:36;;;;;;;4.60;3.17;;;9.50;76.90;;;;;;4969818;28;20031;-35
2024/03/26 08:47:02;;;;;;;4.75;3.50;;;9.50;76.90;;;;;;4978207;28;20414;-34
2024/03/26 08:49:28;;;;;;;5.00;3.35;;;9.60;77.00;;;;;;4974403;28;20030;-34
2024/03/26 08:51:54;;;;;;;5.60;3.40;;;9.60;77.00;;;;;;4962610;28;20564;-37
2024/03/26 08:54:20;;;;;;;5.93;3.15;;;9.60;77.00;;;;;;4970649;28;20047;-38
2024/03/26 08:56:45;;;;;;;6.72;3.78;;;9.60;76.90;;;;;;4968673;28;20176;-34
2024/03/26 08:59:11;;;;;;;5.63;3.35;;;9.70;77.10;;;;;;4966815;28;20514;-36
2024/03/26 09:01:37;;;;;;;5.60;3.28;;;9.70;77.00;;;;;;4976112;28;20039;-36
2024/03/26 09:04:02;;;;;;;6.18;3.65;;;9.80;77.00;;;;;;4979889;28;20070;-34
2024/03/26 09:06:28;;;;;;;4.50;3.20;;;9.80;77.00;;;;;;4964225;28;20043;-36
2024/03/26 09:08:54;;;;;;;5.18;3.65;;;9.80;76.90;;;;;;4967090;28;20107;-37
2024/03/26 09:11:20;;;;;;;6.03;3.95;;;9.90;77.00;;;;;;4963137;28;20035;-34
2024/03/26 09:13:45;;;;;;;4.80;3.42;;;9.90;76.90;;;;;;4978051;28;20043;-32
2024/03/26 09:16:11;;;;;;;5.00;3.20;;;9.90;76.80;;;;;;4980058;28;20055;-39
2024/03/26 09:18:37;;;;;;;5.03;3.40;;;9.90;76.80;;;;;;4980906;28;20034;-34
2024/03/26 09:21:03;;;;;;;4.82;3.55;;;10.00;76.80;;;;;;4974606;28;20035;-38
2024/03/26 09:23:29;;;;;;;4.22;2.92;;;10.00;76.80;;;;;;4981313;28;20034;-34
2024/03/26 09:25:54;;;;;;;6.68;3.75;;;10.10;76.80;;;;;;4977895;28;20421;-38
2024/03/26 09:28:20;;;;;;;6.30;3.72;;;10.10;76.70;;;;;;4985025;28;20095;-34
2024/03/26 09:30:51;;;;;;;4.95;3.67;;;10.10;76.70;;;;;;4977694;28;20399;-34
2024/03/26 09:33:20;;;;;;;4.93;3.50;;;10.20;76.60;;;;;;4976227;28;20030;-38
2024/03/26 09:35:46;;;;;;;4.55;3.53;;;10.20;76.50;;;;;;4971856;28;20042;-33
2024/03/26 09:38:12;;;;;;;6.55;3.63;;;10.20;76.50;;;;;;4980777;28;20031;-35
2024/03/26 09:40:46;;;;;;;5.70;3.95;;;10.30;76.50;;;;;;4964990;28;20515;-35
2024/03/26 09:43:13;;;;;;;6.40;3.75;;;10.40;76.40;;;;;;4977386;28;20380;-36
2024/03/26 09:45:40;;;;;;;5.97;3.92;;;10.40;76.30;;;;;;4973924;28;20042;-35
2024/03/26 09:48:11;;;;;;;5.25;3.70;;;10.40;76.30;;;;;;4979552;28;20030;-35
2024/03/26 09:50:39;;;;;;;4.85;3.80;;;10.50;76.40;;;;;;4967538;28;20456;-33
2024/03/26 09:53:05;;;;;;;5.68;3.80;;;10.40;76.30;;;;;;4979080;28;20031;-34
2024/03/26 09:55:31;;;;;;;5.45;3.78;;;10.50;76.30;;;;;;4954343;28;20046;-38
2024/03/26 09:57:57;;;;;;;5.07;3.45;;;10.50;76.30;;;;;;4977959;28;20026;-40
2024/03/26 10:00:23;;;;;;;5.90;4.00;;;10.50;76.30;;;;;;4972232;28;20031;-38
2024/03/26 10:02:50;;;;;;;5.60;3.80;;;10.60;76.30;;;;;;4979303;28;20098;-36
2024/03/26 10:05:16;;;;;;;4.88;3.90;;;10.60;76.30;;;;;;4970222;28;20027;-37
2024/03/26 10:07:46;;;;;;;7.10;4.05;;;10.70;76.30;;;;;;4982530;28;20031;-38
2024/03/26 10:10:13;;;;;;;5.35;3.90;;;10.70;76.30;;;;;;4976414;28;20037;-36
2024/03/26 10:12:41;;;;;;;5.15;3.83;;;10.80;76.30;;;;;;4973177;28;20475;-38
2024/03/26 10:15:07;;;;;;;4.82;3.80;;;10.80;76.30;;;;;;4969370;28;20051;-33
2024/03/26 10:17:33;;;;;;;6.68;4.10;;;10.80;76.30;;;;;;4948106;28;20028;-36
2024/03/26 10:19:59;;;;;;;5.00;3.67;;;10.90;76.20;;;;;;4980922;28;20038;-36
2024/03/26 10:22:25;;;;;;;5.03;3.95;;;10.90;76.20;;;;;;4965773;28;20050;-36
2024/03/26 10:24:50;;;;;;;7.13;3.92;;;10.90;76.20;;;;;;4968828;28;20033;-37
2024/03/26 10:27:16;;;;;;;5.45;4.05;;;10.90;76.10;;;;;;4983870;28;20029;-36
2024/03/26 10:29:42;;;;;;;4.97;3.85;;;11.00;76.10;;;;;;4964224;28;20058;-38
2024/03/26 10:32:09;;;;;;;4.93;4.03;;;11.10;76.00;;;;;;4970467;28;20023;-38
2024/03/26 10:34:39;;;;;;;5.25;3.90;;;11.10;76.10;;;;;;4978522;28;20031;-39
2024/03/26 10:37:06;;;;;;;6.25;4.28;;;11.20;76.00;;;;;;4973007;28;20023;-41
2024/03/26 10:39:35;;;;;;;5.15;3.78;;;11.20;75.90;;;;;;4981485;28;20037;-33
2024/03/26 10:42:03;;;;;;;5.80;4.00;;;11.30;76.00;;;;;;4974900;28;20082;-38
2024/03/26 10:44:33;;;;;;;5.85;3.95;;;11.30;75.90;;;;;;4973438;28;20034;-34
2024/03/26 10:47:00;;;;;;;5.57;4.00;;;11.30;75.80;;;;;;4976861;28;20684;-37
2024/03/26 10:49:26;;;;;;;5.20;3.88;;;11.40;75.80;;;;;;4987089;28;20027;-39
2024/03/26 10:51:57;;;;;;;5.47;3.83;;;11.40;75.80;;;;;;4977496;28;20033;-37
2024/03/26 10:54:25;;;;;;;6.32;3.85;;;11.50;75.70;;;;;;4980336;28;20068;-35
2024/03/26 10:56:53;;;;;;;5.75;3.88;;;11.50;75.70;;;;;;4978399;28;20038;-34
2024/03/26 10:59:20;;;;;;;6.28;3.95;;;11.50;75.60;;;;;;4973518;28;20106;-38
2024/03/26 11:01:48;;;;;;;5.07;3.83;;;11.60;75.70;;;;;;4974953;28;20050;-35
2024/03/26 11:04:14;;;;;;;5.50;3.63;;;11.60;75.60;;;;;;4969200;28;20030;-37
2024/03/26 11:06:40;;;;;;;5.10;3.70;;;11.70;75.50;;;;;;4981737;28;20035;-36
2024/03/26 11:09:07;;;;;;;5.25;3.72;;;11.70;75.40;;;;;;4967357;28;20065;-36
2024/03/26 11:11:34;;;;;;;5.28;3.75;;;11.70;75.40;;;;;;4973589;28;20821;-37
2024/03/26 11:14:02;;;;;;;5.65;3.80;;;11.80;75.50;;;;;;4974017;28;20107;-36
2024/03/26 11:16:40;;;;;;;6.13;3.92;;;11.80;75.40;;;;;;4974482;28;20024;-39
2024/03/26 11:19:25;;;;;;;5.53;3.30;;;11.90;75.40;;;;;;4972387;28;20035;-32
2024/03/26 11:21:55;;;;;;;4.35;3.47;;;11.90;75.90;;;;;;4976458;28;20098;-37
2024/03/26 11:24:34;;;;;;;4.85;3.50;;;12.00;75.40;;;;;;4979884;28;20396;-38
2024/03/26 11:27:01;;;;;;;5.50;3.38;;;12.00;75.40;;;;;;4970969;28;20030;-39
2024/03/26 11:29:29;;;;;;;5.82;3.63;;;12.00;75.30;;;;;;4979166;28;20027;-35
2024/03/26 11:31:56;;;;;;;6.25;3.90;;;12.10;75.20;;;;;;4956412;28;20023;-39
2024/03/26 11:34:23;;;;;;;4.22;3.45;;;12.10;75.10;;;;;;4980276;28;20037;-37
2024/03/26 11:36:52;;;;;;;4.45;3.53;;;12.20;75.10;;;;;;4978447;28;20034;-38
2024/03/26 11:39:23;;;;;;;4.95;3.50;;;12.20;75.10;;;;;;4982964;28;20575;-35
2024/03/26 11:41:53;;;;;;;4.57;3.60;;;12.30;75.10;;;;;;4979186;28;20039;-39
2024/03/26 11:44:19;;;;;;;5.88;3.60;;;12.30;75.00;;;;;;4974518;28;20468;-37
2024/03/26 11:46:46;;;;;;;4.38;3.25;;;12.30;74.90;;;;;;4974956;28;20035;-34
2024/03/26 11:49:12;;;;;;;4.93;3.55;;;12.40;74.90;;;;;;4988104;28;20057;-38
2024/03/26 11:51:38;;;;;;;6.05;4.10;;;12.40;74.90;;;;;;4977179;28;20547;-39
2024/03/26 11:54:05;;;;;;;4.60;3.55;;;12.50;74.90;;;;;;4975756;28;20023;-38
2024/03/26 11:56:32;;;;;;;5.28;3.53;;;12.50;74.80;;;;;;4974626;28;20117;-37
2024/03/26 11:58:57;;;;;;;5.07;3.50;;;12.60;74.80;;;;;;4979551;28;20026;-35
2024/03/26 12:01:24;;;;;;;5.95;3.40;;;12.60;74.80;;;;;;4975752;28;20054;-37
2024/03/26 12:03:51;;;;;;;4.45;3.38;;;12.70;74.80;;;;;;4978178;28;20019;-36
2024/03/26 12:06:25;;;;;;;5.05;3.60;;;12.70;74.80;;;;;;4976333;28;20086;-35
2024/03/26 12:08:57;;;;;;;4.75;3.30;;;12.70;74.60;;;;;;4977965;28;20023;-39
2024/03/26 12:11:23;;;;;;;5.07;3.42;;;12.80;74.60;;;;;;4969795;28;20045;-38
2024/03/26 12:13:50;;;;;;;5.80;3.45;;;12.80;74.60;;;;;;4980743;28;20137;-36
2024/03/26 12:16:29;;;;;;;4.90;3.45;;;12.90;74.60;;;;;;4972718;28;20029;-35
2024/03/26 12:18:56;;;;;;;4.72;3.40;;;13.00;74.60;;;;;;4980082;28;20038;-35
2024/03/26 12:21:24;;;;;;;4.40;3.13;;;13.00;74.50;;;;;;4980211;28;20055;-36
2024/03/26 12:23:55;;;;;;;3.88;2.88;;;13.00;74.50;;;;;;4976372;28;20073;-36
2024/03/26 12:26:21;;;;;;;4.32;3.28;;;13.10;74.60;;;;;;4981184;28;20062;-39
2024/03/26 12:28:48;;;;;;;4.47;3.38;;;13.10;74.60;;;;;;4983561;28;20030;-39
2024/03/26 12:31:16;;;;;;;4.93;3.25;;;13.20;74.60;;;;;;4977437;28;20134;-33
2024/03/26 12:33:46;;;;;;;5.10;3.30;;;13.20;74.40;;;;;;4952127;28;20597;-38
2024/03/26 12:36:13;;;;;;;4.43;3.30;;;13.30;74.50;;;;;;4975502;28;20072;-35
2024/03/26 12:38:39;;;;;;;4.00;3.28;;;13.30;74.40;;;;;;4977104;28;20425;-35
2024/03/26 12:41:05;;;;;;;4.13;3.17;;;13.30;74.40;;;;;;4977597;28;20035;-37
2024/03/26 12:43:33;;;;;;;4.18;2.95;;;13.40;74.50;;;;;;4980888;28;20106;-37
2024/03/26 12:45:59;;;;;;;4.68;3.35;;;13.40;74.50;;;;;;4981949;28;20054;-38